createdAt,value
2022-09-28T00:01:29.702Z,98222.63
2022-09-28T00:03:01.702Z,98221.34
2022-09-28T00:04:33.659Z,98226.06
2022-09-28T00:06:07.330Z,98214.22
2022-09-28T00:07:39.256Z,98221.91
2022-09-28T00:09:11.160Z,98219.47
2022-09-28T00:10:43.398Z,98217.03
2022-09-28T00:12:15.288Z,98209.59
2022-09-28T00:13:49.377Z,98209.28
2022-09-28T00:15:21.830Z,98209.41
2022-09-28T00:16:54.179Z,98219.66
2022-09-28T00:18:26.694Z,98223.66
2022-09-28T00:19:58.681Z,98219.66
2022-09-28T00:21:34.623Z,98214.81
2022-09-28T00:23:06.562Z,98213.69
2022-09-28T00:24:38.428Z,98228.19
2022-09-28T00:26:10.340Z,98219.19
2022-09-28T00:27:42.673Z,98216.88
2022-09-28T00:29:16.600Z,98216.28
2022-09-28T00:30:48.775Z,98217.72
2022-09-28T00:32:24.679Z,98212.03
2022-09-28T00:34:00.301Z,98214.63
2022-09-28T00:35:32.188Z,98207.66
2022-09-28T00:37:06.535Z,98210.78
2022-09-28T00:38:40.644Z,98194.31
2022-09-28T00:40:12.477Z,98201.88
2022-09-28T00:41:45.273Z,98204.66
2022-09-28T00:43:18.713Z,98204.81
2022-09-28T00:44:51.656Z,98199.97
2022-09-28T00:46:31.475Z,98196.47
2022-09-28T00:48:03.448Z,98196.19
2022-09-28T00:49:47.342Z,98195.91
2022-09-28T00:51:19.587Z,98190.81
2022-09-28T00:52:54.338Z,98187.25
2022-09-28T00:54:27.047Z,98189.84
2022-09-28T00:56:03.734Z,98190.28
2022-09-28T00:57:36.663Z,98172.88
2022-09-28T00:59:08.965Z,98172.75
2022-09-28T01:00:41.522Z,98195.84
2022-09-28T01:02:14.446Z,98173.19
2022-09-28T01:03:48.672Z,98175.38
2022-09-28T01:05:20.850Z,98176.47
2022-09-28T01:06:52.952Z,98175.56
2022-09-28T01:08:27.722Z,98179.94
2022-09-28T01:09:59.886Z,98186.56
2022-09-28T01:11:33.030Z,98188.38
2022-09-28T01:13:06.874Z,98180.38
2022-09-28T01:14:39.840Z,98197.31
2022-09-28T01:16:11.818Z,98195.91
2022-09-28T01:18:03.125Z,98196.34
2022-09-28T01:19:51.657Z,98200.34
2022-09-28T01:21:24.215Z,98204.47
2022-09-28T01:23:02.005Z,98215.78
2022-09-28T01:24:43.007Z,98210.38
2022-09-28T01:26:39.929Z,98204.09
2022-09-28T01:28:11.730Z,98209.94
2022-09-28T01:29:54.355Z,98208.09
2022-09-28T01:31:29.821Z,98213.38
2022-09-28T01:33:04.752Z,98217.47
2022-09-28T01:35:05.793Z,98214.94
2022-09-28T01:36:43.781Z,98212.34
2022-09-28T01:38:17.621Z,98215.78
2022-09-28T01:39:52.367Z,98230.56
2022-09-28T01:41:25.113Z,98227.88
2022-09-28T01:43:08.771Z,98229.31
2022-09-28T01:44:42.545Z,98232.03
2022-09-28T01:46:19.385Z,98232.56
2022-09-28T01:47:55.028Z,98233.72
2022-09-28T01:49:34.782Z,98240.31
2022-09-28T01:51:11.204Z,98226.53
2022-09-28T01:52:50.098Z,98225.09
2022-09-28T01:54:25.742Z,98227.09
2022-09-28T01:56:00.278Z,98217.69
2022-09-28T01:57:34.995Z,98229.47
2022-09-28T01:59:17.596Z,98230.88
2022-09-28T02:00:52.224Z,98228.47
2022-09-28T02:02:26.808Z,98220.47
2022-09-28T02:04:04.766Z,98216.59
2022-09-28T02:05:38.850Z,98219.28
2022-09-28T02:07:10.756Z,98219.44
2022-09-28T02:08:54.095Z,98215.56
2022-09-28T02:10:42.534Z,98228.19
2022-09-28T02:12:22.926Z,98227.03
2022-09-28T02:13:58.915Z,98225.84
2022-09-28T02:15:35.242Z,98225.41
2022-09-28T02:17:07.576Z,98230.97
2022-09-28T02:18:39.655Z,98224.84
2022-09-28T02:20:11.547Z,98228.81
2022-09-28T02:21:43.394Z,98228.13
2022-09-28T02:23:15.418Z,98223.88
2022-09-28T02:24:55.258Z,98224.44
2022-09-28T02:26:32.597Z,98223.13
2022-09-28T02:28:05.814Z,98221.63
2022-09-28T02:29:37.824Z,98224.19
2022-09-28T02:31:09.975Z,98225.34
2022-09-28T02:32:45.342Z,98224.97
2022-09-28T02:34:17.654Z,98216.59
2022-09-28T02:35:50.515Z,98220.19
2022-09-28T02:37:24.135Z,98221.94
2022-09-28T02:38:57.758Z,98227.09
2022-09-28T02:40:31.771Z,98221.53
2022-09-28T02:42:27.047Z,98218.13
2022-09-28T02:44:06.316Z,98218.00
2022-09-28T02:45:51.562Z,98211.59
2022-09-28T02:47:30.581Z,98209.81
2022-09-28T02:49:21.773Z,98212.06
2022-09-28T02:51:00.893Z,98217.47
2022-09-28T02:52:32.732Z,98218.06
2022-09-28T02:54:04.877Z,98219.81
2022-09-28T02:55:39.744Z,98220.84
2022-09-28T02:57:18.008Z,98218.31
2022-09-28T02:59:16.646Z,98218.50
2022-09-28T03:01:07.585Z,98219.44
2022-09-28T03:02:42.606Z,98219.56
2022-09-28T03:04:21.554Z,98226.44
2022-09-28T03:05:58.523Z,98224.34
2022-09-28T03:07:46.129Z,98228.50
2022-09-28T03:09:23.123Z,98226.97
2022-09-28T03:11:04.313Z,98226.31
2022-09-28T03:12:38.398Z,98215.38
2022-09-28T03:14:11.185Z,98231.63
2022-09-28T03:16:21.189Z,98221.38
2022-09-28T03:17:54.613Z,98226.81
2022-09-28T03:19:28.639Z,98225.38
2022-09-28T03:21:01.252Z,98214.00
2022-09-28T03:22:33.130Z,98220.84
2022-09-28T03:24:05.997Z,98211.59
2022-09-28T03:25:37.897Z,98217.31
2022-09-28T03:27:09.834Z,98222.94
2022-09-28T03:28:41.690Z,98225.38
2022-09-28T03:30:18.342Z,98223.81
2022-09-28T03:31:51.803Z,98221.81
2022-09-28T03:33:23.767Z,98224.53
2022-09-28T03:34:56.169Z,98225.94
2022-09-28T03:36:28.126Z,98219.84
2022-09-28T03:37:59.950Z,98232.63
2022-09-28T03:39:34.215Z,98224.66
2022-09-28T03:41:06.157Z,98225.50
2022-09-28T03:42:40.610Z,98231.19
2022-09-28T03:44:12.896Z,98224.13
2022-09-28T03:45:51.147Z,98219.84
2022-09-28T03:47:23.093Z,98223.00
2022-09-28T03:48:56.510Z,98218.00
2022-09-28T03:50:28.389Z,98219.84
2022-09-28T03:52:00.437Z,98215.56
2022-09-28T03:53:33.065Z,98223.41
2022-09-28T03:55:06.354Z,98225.81
2022-09-28T03:56:38.249Z,98224.78
2022-09-28T03:58:10.149Z,98218.97
2022-09-28T03:59:42.001Z,98217.97
2022-09-28T04:01:17.708Z,98221.53
2022-09-28T04:02:51.113Z,98216.25
2022-09-28T04:04:23.375Z,98218.41
2022-09-28T04:05:55.254Z,98220.53
2022-09-28T04:07:31.107Z,98214.41
2022-09-28T04:09:03.949Z,98209.72
2022-09-28T04:10:35.865Z,98205.03
2022-09-28T04:12:07.997Z,98209.13
2022-09-28T04:13:40.725Z,98205.28
2022-09-28T04:15:15.509Z,98203.44
2022-09-28T04:16:48.239Z,98205.00
2022-09-28T04:18:21.409Z,98207.25
2022-09-28T04:20:12.129Z,98208.81
2022-09-28T04:21:50.608Z,98211.09
2022-09-28T04:23:22.990Z,98207.25
2022-09-28T04:24:55.342Z,98207.34
2022-09-28T04:26:27.834Z,98213.63
2022-09-28T04:28:22.785Z,98211.91
2022-09-28T04:29:54.802Z,98208.19
2022-09-28T04:31:27.712Z,98200.47
2022-09-28T04:32:59.702Z,98208.84
2022-09-28T04:34:37.854Z,98207.69
2022-09-28T04:36:11.125Z,98205.28
2022-09-28T04:37:42.993Z,98202.13
2022-09-28T04:39:15.882Z,98199.53
2022-09-28T04:40:50.927Z,98198.41
2022-09-28T04:42:22.927Z,98193.81
2022-09-28T04:43:56.061Z,98201.94
2022-09-28T04:45:30.469Z,98205.03
2022-09-28T04:47:09.154Z,98198.34
2022-09-28T04:48:59.087Z,98202.59
2022-09-28T04:50:52.721Z,98199.31
2022-09-28T04:52:27.302Z,98203.56
2022-09-28T04:53:59.599Z,98202.28
2022-09-28T04:55:32.727Z,98197.47
2022-09-28T04:57:06.184Z,98194.59
2022-09-28T04:58:38.434Z,98192.38
2022-09-28T05:00:11.097Z,98191.25
2022-09-28T05:01:44.677Z,98192.84
2022-09-28T05:03:35.047Z,98185.66
2022-09-28T05:05:21.375Z,98182.50
2022-09-28T05:07:13.472Z,98188.84
2022-09-28T05:08:47.205Z,98185.59
2022-09-28T05:10:20.057Z,98181.03
2022-09-28T05:11:55.113Z,98177.25
2022-09-28T05:13:30.507Z,98184.25
2022-09-28T05:15:02.522Z,98180.38
2022-09-28T05:16:35.175Z,98182.56
2022-09-28T05:18:25.842Z,98184.03
2022-09-28T05:20:07.184Z,98182.16
2022-09-28T05:21:39.290Z,98176.50
2022-09-28T05:23:11.997Z,98179.63
2022-09-28T05:24:46.419Z,98186.16
2022-09-28T05:26:18.891Z,98188.03
2022-09-28T05:27:57.208Z,98182.06
2022-09-28T05:29:43.495Z,98191.41
2022-09-28T05:31:35.935Z,98183.53
2022-09-28T05:33:32.589Z,98187.91
2022-09-28T05:35:18.663Z,98188.41
2022-09-28T05:36:52.057Z,98188.22
2022-09-28T05:38:24.298Z,98189.78
2022-09-28T05:39:56.254Z,98198.28
2022-09-28T05:41:28.261Z,98195.00
2022-09-28T05:43:01.171Z,98182.00
2022-09-28T05:44:33.184Z,98189.09
2022-09-28T05:46:06.027Z,98189.28
2022-09-28T05:47:41.032Z,98179.03
2022-09-28T05:49:13.779Z,98182.34
2022-09-28T05:50:50.235Z,98179.91
2022-09-28T05:52:22.516Z,98179.94
2022-09-28T05:54:00.669Z,98173.44
2022-09-28T05:55:36.466Z,98169.03
2022-09-28T05:57:08.613Z,98164.91
2022-09-28T05:58:40.596Z,98160.47
2022-09-28T06:00:13.774Z,98155.84
2022-09-28T06:01:47.244Z,98146.69
2022-09-28T06:03:19.583Z,98154.47
2022-09-28T06:04:52.043Z,98141.72
2022-09-28T06:06:23.947Z,98136.16
2022-09-28T06:07:57.342Z,98127.34
2022-09-28T06:09:30.137Z,98134.66
2022-09-28T06:11:25.105Z,98139.25
2022-09-28T06:12:58.117Z,98140.50
2022-09-28T06:14:29.957Z,98145.91
2022-09-28T06:16:04.802Z,98144.69
2022-09-28T06:17:36.802Z,98143.00
2022-09-28T06:19:27.148Z,98144.03
2022-09-28T06:21:17.794Z,98149.41
2022-09-28T06:22:53.207Z,98159.28
2022-09-28T06:24:25.089Z,98164.97
2022-09-28T06:25:58.839Z,98160.34
2022-09-28T06:27:30.810Z,98179.69
2022-09-28T06:29:03.473Z,98174.94
2022-09-28T06:30:41.387Z,98166.09
2022-09-28T06:32:16.208Z,98171.91
2022-09-28T06:33:51.179Z,98173.91
2022-09-28T06:35:25.475Z,98157.16
2022-09-28T06:36:57.334Z,98155.91
2022-09-28T06:38:29.616Z,98144.47
2022-09-28T06:40:02.054Z,98144.66
2022-09-28T06:41:35.382Z,98146.63
2022-09-28T06:43:17.584Z,98139.09
2022-09-28T06:45:08.145Z,98142.72
2022-09-28T06:47:05.822Z,98142.53
2022-09-28T06:48:55.497Z,98138.25
2022-09-28T06:50:56.641Z,98144.78
2022-09-28T06:52:43.530Z,98145.59
2022-09-28T06:54:51.501Z,98141.72
2022-09-28T06:56:32.674Z,98149.56
2022-09-28T06:58:06.330Z,98144.03
2022-09-28T06:59:38.657Z,98140.84
2022-09-28T07:01:12.174Z,98144.63
2022-09-28T07:03:17.493Z,98153.25
2022-09-28T07:05:09.547Z,98155.13
2022-09-28T07:06:57.495Z,98153.84
2022-09-28T07:08:38.062Z,98153.94
2022-09-28T07:10:29.417Z,98156.28
2022-09-28T07:12:32.292Z,98156.69
2022-09-28T07:14:25.632Z,98162.31
2022-09-28T07:16:02.010Z,98159.78
2022-09-28T07:17:41.798Z,98157.44
2022-09-28T07:19:19.485Z,98158.78
2022-09-28T07:20:54.479Z,98150.53
2022-09-28T07:22:41.079Z,98150.59
2022-09-28T07:24:16.092Z,98154.09
2022-09-28T07:26:08.903Z,98151.66
2022-09-28T07:28:01.234Z,98149.19
2022-09-28T07:29:48.810Z,98147.13
2022-09-28T07:31:46.771Z,98145.91
2022-09-28T07:33:27.164Z,98144.00
2022-09-28T07:35:08.331Z,98138.47
2022-09-28T07:37:13.374Z,98129.44
2022-09-28T07:38:45.451Z,98134.78
2022-09-28T07:40:36.247Z,98138.38
2022-09-28T07:42:09.463Z,98127.63
2022-09-28T07:43:41.613Z,98129.84
2022-09-28T07:45:13.512Z,98127.41
2022-09-28T07:46:45.424Z,98119.75
2022-09-28T07:48:27.242Z,98130.06
2022-09-28T07:50:18.140Z,98129.56
2022-09-28T07:51:58.723Z,98125.69
2022-09-28T07:53:33.725Z,98119.03
2022-09-28T07:55:35.915Z,98124.75
2022-09-28T07:57:16.651Z,98118.41
2022-09-28T07:59:07.149Z,98121.88
2022-09-28T08:00:47.601Z,98111.94
2022-09-28T08:02:20.465Z,98113.66
2022-09-28T08:03:56.342Z,98110.97
2022-09-28T08:05:32.285Z,98110.19
2022-09-28T08:07:08.245Z,98109.53
2022-09-28T08:08:43.898Z,98103.19
2022-09-28T08:10:17.397Z,98100.91
2022-09-28T08:12:21.737Z,98092.44
2022-09-28T08:14:27.186Z,98101.22
2022-09-28T08:16:02.670Z,98096.66
2022-09-28T08:17:50.154Z,98097.06
2022-09-28T08:19:24.949Z,98095.84
2022-09-28T08:21:16.517Z,98100.22
2022-09-28T08:22:48.768Z,98095.22
2022-09-28T08:24:21.203Z,98105.34
2022-09-28T08:25:55.052Z,98098.63
2022-09-28T08:27:28.029Z,98105.06
2022-09-28T08:29:00.021Z,98102.16
2022-09-28T08:30:52.434Z,98105.31
2022-09-28T08:32:36.470Z,98092.31
2022-09-28T08:34:35.294Z,98094.91
2022-09-28T08:36:10.385Z,98096.63
2022-09-28T08:38:08.827Z,98095.50
2022-09-28T08:39:59.590Z,98085.31
2022-09-28T08:42:09.005Z,98078.38
2022-09-28T08:43:40.855Z,98080.28
2022-09-28T08:45:29.777Z,98076.00
2022-09-28T08:47:46.198Z,98072.06
2022-09-28T08:49:44.615Z,98067.88
2022-09-28T08:51:44.467Z,98056.56
2022-09-28T08:53:35.174Z,98066.75
2022-09-28T08:55:26.391Z,98070.97
2022-09-28T08:57:01.017Z,98068.63
2022-09-28T08:58:37.987Z,98062.06
2022-09-28T09:00:14.662Z,98063.25
2022-09-28T09:01:50.502Z,98058.59
2022-09-28T09:03:32.024Z,98057.13
2022-09-28T09:05:51.146Z,98051.09
2022-09-28T09:07:51.047Z,98052.78
2022-09-28T09:09:39.314Z,98055.47
2022-09-28T09:11:46.406Z,98051.75
2022-09-28T09:13:18.776Z,98051.44
2022-09-28T09:15:13.982Z,98047.22
2022-09-28T09:17:03.909Z,98052.13
2022-09-28T09:18:51.159Z,98044.75
2022-09-28T09:20:48.894Z,98035.50
2022-09-28T09:22:45.264Z,98035.13
2022-09-28T09:24:17.529Z,98032.59
2022-09-28T09:25:57.171Z,98036.16
2022-09-28T09:27:29.092Z,98034.22
2022-09-28T09:29:19.357Z,98024.75
2022-09-28T09:30:55.545Z,98029.03
2022-09-28T09:32:33.755Z,98022.47
2022-09-28T09:34:12.583Z,98026.63
2022-09-28T09:35:55.178Z,98024.69
2022-09-28T09:37:56.511Z,98016.69
2022-09-28T09:39:50.721Z,98016.84
2022-09-28T09:42:03.023Z,98026.66
2022-09-28T09:43:34.979Z,98022.81
2022-09-28T09:45:41.261Z,98011.50
2022-09-28T09:47:40.034Z,98017.03
2022-09-28T09:49:25.155Z,98013.78
2022-09-28T09:50:59.240Z,98009.16
2022-09-28T09:52:42.326Z,98007.28
2022-09-28T09:54:19.210Z,98009.59
2022-09-28T09:55:57.274Z,98007.78
2022-09-28T09:57:42.991Z,98002.53
2022-09-28T09:59:33.795Z,97996.72
2022-09-28T10:01:14.810Z,97996.22
2022-09-28T10:03:05.179Z,97999.22
2022-09-28T10:04:46.709Z,98002.16
2022-09-28T10:06:36.364Z,97997.75
2022-09-28T10:08:09.349Z,98011.94
2022-09-28T10:09:45.772Z,98010.41
2022-09-28T10:11:48.313Z,97995.91
2022-09-28T10:13:20.298Z,97998.91
2022-09-28T10:14:55.384Z,97985.38
2022-09-28T10:16:30.920Z,97998.75
2022-09-28T10:18:06.837Z,97995.03
2022-09-28T10:19:57.239Z,97991.34
2022-09-28T10:22:03.820Z,97987.59
2022-09-28T10:23:36.716Z,97984.97
2022-09-28T10:25:10.001Z,97987.72
2022-09-28T10:26:43.313Z,97982.31
2022-09-28T10:28:21.458Z,97970.59
2022-09-28T10:30:12.085Z,97976.66
2022-09-28T10:31:45.421Z,97979.81
2022-09-28T10:33:38.868Z,97965.19
2022-09-28T10:35:19.943Z,97963.25
2022-09-28T10:37:04.213Z,97968.84
2022-09-28T10:38:48.607Z,97965.03
2022-09-28T10:40:34.213Z,97961.28
2022-09-28T10:42:07.759Z,97958.19
2022-09-28T10:44:05.994Z,97955.66
2022-09-28T10:46:02.120Z,97959.88
2022-09-28T10:47:35.603Z,97949.09
2022-09-28T10:49:16.721Z,97963.69
2022-09-28T10:51:04.538Z,97947.44
2022-09-28T10:52:39.931Z,97944.09
2022-09-28T10:54:18.192Z,97957.13
2022-09-28T10:56:12.345Z,97953.69
2022-09-28T10:57:44.202Z,97961.94
2022-09-28T10:59:24.878Z,97953.78
2022-09-28T11:01:01.035Z,97955.09
2022-09-28T11:02:36.469Z,97958.63
2022-09-28T11:04:20.132Z,97953.91
2022-09-28T11:06:05.519Z,97950.56
2022-09-28T11:07:45.301Z,97945.91
2022-09-28T11:09:30.845Z,97941.22
2022-09-28T11:11:08.987Z,97946.16
2022-09-28T11:12:43.977Z,97948.28
2022-09-28T11:14:26.318Z,97941.94
2022-09-28T11:15:59.493Z,97950.81
2022-09-28T11:17:42.121Z,97931.41
2022-09-28T11:19:18.706Z,97932.72
2022-09-28T11:20:50.731Z,97934.63
2022-09-28T11:22:24.759Z,97931.84
2022-09-28T11:24:06.523Z,97927.72
2022-09-28T11:25:41.291Z,97924.88
2022-09-28T11:27:25.437Z,97931.03
2022-09-28T11:28:57.839Z,97908.19
2022-09-28T11:30:50.150Z,97918.34
2022-09-28T11:32:45.354Z,97915.44
2022-09-28T11:34:57.934Z,97916.81
2022-09-28T11:36:38.296Z,97923.75
2022-09-28T11:38:25.111Z,97923.13
2022-09-28T11:40:31.870Z,97915.78
2022-09-28T11:42:07.556Z,97913.81
2022-09-28T11:44:02.514Z,97913.97
2022-09-28T11:45:48.691Z,97920.34
2022-09-28T11:47:41.825Z,97908.22
2022-09-28T11:49:24.804Z,97912.47
2022-09-28T11:51:00.100Z,97915.22
2022-09-28T11:52:32.136Z,97915.97
2022-09-28T11:54:04.490Z,97908.59
2022-09-28T11:55:36.666Z,97914.22
2022-09-28T11:57:11.966Z,97906.72
2022-09-28T11:58:49.035Z,97908.88
2022-09-28T12:00:24.614Z,97900.59
2022-09-28T12:02:23.368Z,97902.56
2022-09-28T12:04:06.602Z,97895.53
2022-09-28T12:05:41.282Z,97903.72
2022-09-28T12:07:17.027Z,97896.03
2022-09-28T12:08:55.717Z,97892.56
2022-09-28T12:10:53.945Z,97902.91
2022-09-28T12:12:37.309Z,97892.72
2022-09-28T12:14:31.002Z,97903.84
2022-09-28T12:16:32.314Z,97897.88
2022-09-28T12:18:06.223Z,97903.50
2022-09-28T12:19:44.304Z,97907.00
2022-09-28T12:21:26.703Z,97907.75
2022-09-28T12:22:58.548Z,97901.47
2022-09-28T12:24:39.396Z,97895.28
2022-09-28T12:26:18.629Z,97894.00
2022-09-28T12:27:56.364Z,97897.44
2022-09-28T12:29:40.935Z,97893.94
2022-09-28T12:31:19.016Z,97893.16
2022-09-28T12:32:54.079Z,97889.72
2022-09-28T12:34:26.265Z,97889.03
2022-09-28T12:36:16.477Z,97881.47
2022-09-28T12:38:08.924Z,97886.16
2022-09-28T12:39:56.921Z,97890.91
2022-09-28T12:41:36.376Z,97887.53
2022-09-28T12:43:20.088Z,97900.56
2022-09-28T12:44:59.643Z,97903.19
2022-09-28T12:46:34.951Z,97899.66
2022-09-28T12:48:16.110Z,97905.72
2022-09-28T12:50:37.448Z,97906.38
2022-09-28T12:52:01.507Z,97907.78
2022-09-28T12:53:48.226Z,97918.25
2022-09-28T12:55:39.893Z,97919.66
2022-09-28T12:57:30.133Z,97915.38
2022-09-28T12:59:20.170Z,97913.91
2022-09-28T13:00:55.083Z,97917.91
2022-09-28T13:02:46.096Z,97913.00
2022-09-28T13:04:29.992Z,97913.09
2022-09-28T13:06:17.188Z,97914.59
2022-09-28T13:08:07.903Z,97921.00
2022-09-28T13:09:52.166Z,97921.00
2022-09-28T13:11:42.232Z,97916.19
2022-09-28T13:13:26.628Z,97911.97
2022-09-28T13:15:08.782Z,97909.94
2022-09-28T13:17:00.752Z,97909.94
2022-09-28T13:18:50.145Z,97909.88
2022-09-28T13:20:22.082Z,97913.75
2022-09-28T13:22:03.032Z,97910.22
2022-09-28T13:23:39.459Z,97906.06
2022-09-28T13:25:19.191Z,97895.56
2022-09-28T13:26:52.133Z,97901.63
2022-09-28T13:28:27.185Z,97906.31
2022-09-28T13:30:01.228Z,97900.03
2022-09-28T13:31:35.976Z,97902.66
2022-09-28T13:33:15.226Z,97894.31
2022-09-28T13:34:48.691Z,97901.88
2022-09-28T13:36:26.692Z,97889.53
2022-09-28T13:38:27.946Z,97890.72
2022-09-28T13:40:05.979Z,97897.47
2022-09-28T13:41:40.515Z,97898.13
2022-09-28T13:43:19.665Z,97897.44
2022-09-28T13:44:54.640Z,97883.75
2022-09-28T13:46:29.599Z,97889.28
2022-09-28T13:48:13.092Z,97888.53
2022-09-28T13:49:47.611Z,97894.78
2022-09-28T13:51:38.137Z,97894.81
2022-09-28T13:53:22.058Z,97891.31
2022-09-28T13:54:53.910Z,97901.72
2022-09-28T13:56:26.358Z,97897.47
2022-09-28T13:58:04.561Z,97907.72
2022-09-28T13:59:46.459Z,97900.22
2022-09-28T14:01:39.893Z,97899.75
2022-09-28T14:03:14.986Z,97904.09
2022-09-28T14:04:53.108Z,97901.53
2022-09-28T14:06:32.079Z,97899.66
2022-09-28T14:08:10.001Z,97905.91
2022-09-28T14:09:49.054Z,97906.56
2022-09-28T14:11:27.152Z,97900.34
2022-09-28T14:12:59.065Z,97912.00
2022-09-28T14:14:44.669Z,97905.13
2022-09-28T14:16:23.706Z,97906.50
2022-09-28T14:17:58.479Z,97909.16
2022-09-28T14:19:33.235Z,97902.88
2022-09-28T14:21:23.976Z,97911.75
2022-09-28T14:22:57.878Z,97911.69
2022-09-28T14:24:39.017Z,97915.00
2022-09-28T14:26:17.120Z,97905.31
2022-09-28T14:28:01.524Z,97906.00
2022-09-28T14:29:34.664Z,97906.69
2022-09-28T14:31:08.773Z,97905.94
2022-09-28T14:32:43.238Z,97903.81
2022-09-28T14:34:23.982Z,97902.41
2022-09-28T14:36:02.214Z,97907.22
2022-09-28T14:37:53.540Z,97906.44
2022-09-28T14:39:50.285Z,97918.13
2022-09-28T14:41:31.424Z,97907.16
2022-09-28T14:43:25.138Z,97907.75
2022-09-28T14:45:06.315Z,97907.72
2022-09-28T14:46:44.349Z,97906.94
2022-09-28T14:48:20.501Z,97905.44
2022-09-28T14:50:01.028Z,97914.97
2022-09-28T14:51:34.987Z,97903.91
2022-09-28T14:53:12.244Z,97901.72
2022-09-28T14:54:49.168Z,97902.28
2022-09-28T14:56:22.020Z,97904.97
2022-09-28T14:57:56.600Z,97910.44
2022-09-28T14:59:30.368Z,97909.69
2022-09-28T15:01:06.845Z,97912.34
2022-09-28T15:02:39.157Z,97912.28
2022-09-28T15:04:12.849Z,97911.50
2022-09-28T15:05:49.531Z,97901.88
2022-09-28T15:07:27.166Z,97911.34
2022-09-28T15:08:59.107Z,97901.63
2022-09-28T15:10:32.718Z,97898.16
2022-09-28T15:12:04.736Z,97905.63
2022-09-28T15:13:40.779Z,97904.19
2022-09-28T15:15:24.199Z,97911.72
2022-09-28T15:16:57.467Z,97913.69
2022-09-28T15:18:29.507Z,97910.81
2022-09-28T15:20:01.459Z,97910.72
2022-09-28T15:21:39.648Z,97912.03
2022-09-28T15:23:30.454Z,97913.22
2022-09-28T15:25:03.536Z,97913.06
2022-09-28T15:26:35.357Z,97918.47
2022-09-28T15:28:17.314Z,97919.72
2022-09-28T15:30:18.566Z,97920.25
2022-09-28T15:31:54.320Z,97920.13
2022-09-28T15:33:49.646Z,97912.44
2022-09-28T15:35:22.622Z,97920.50
2022-09-28T15:36:56.423Z,97919.09
2022-09-28T15:38:29.232Z,97918.25
2022-09-28T15:40:01.479Z,97925.75
2022-09-28T15:41:34.113Z,97933.88
2022-09-28T15:43:21.378Z,97926.28
2022-09-28T15:45:00.743Z,97933.06
2022-09-28T15:46:35.119Z,97931.56
2022-09-28T15:48:40.738Z,97930.84
2022-09-28T15:50:24.058Z,97936.25
2022-09-28T15:51:56.177Z,97929.34
2022-09-28T15:53:28.406Z,97927.19
2022-09-28T15:55:01.743Z,97929.94
2022-09-28T15:56:50.802Z,97932.59
2022-09-28T15:58:24.358Z,97928.41
2022-09-28T15:59:59.628Z,97925.63
2022-09-28T16:01:36.674Z,97922.13
2022-09-28T16:03:08.981Z,97920.06
2022-09-28T16:04:56.896Z,97921.97
2022-09-28T16:06:28.970Z,97916.38
2022-09-28T16:08:02.158Z,97925.78
2022-09-28T16:09:40.267Z,97921.50
2022-09-28T16:11:20.720Z,97926.84
2022-09-28T16:12:54.653Z,97922.50
2022-09-28T16:14:27.175Z,97924.34
2022-09-28T16:16:00.007Z,97928.97
2022-09-28T16:17:33.602Z,97930.19
2022-09-28T16:19:05.768Z,97936.16
2022-09-28T16:20:38.764Z,97927.13
2022-09-28T16:22:17.396Z,97929.16
2022-09-28T16:23:52.966Z,97933.81
2022-09-28T16:25:26.746Z,97931.75
2022-09-28T16:27:02.376Z,97937.84
2022-09-28T16:28:34.962Z,97935.75
2022-09-28T16:30:15.322Z,97946.69
2022-09-28T16:31:52.702Z,97943.91
2022-09-28T16:33:29.110Z,97942.50
2022-09-28T16:35:12.831Z,97946.50
2022-09-28T16:36:45.624Z,97938.19
2022-09-28T16:38:18.137Z,97950.41
2022-09-28T16:39:50.010Z,97950.25
2022-09-28T16:41:24.077Z,97941.94
2022-09-28T16:42:58.856Z,97946.56
2022-09-28T16:44:32.774Z,97946.44
2022-09-28T16:46:14.996Z,97940.78
2022-09-28T16:47:47.725Z,97935.81
2022-09-28T16:49:20.001Z,97929.50
2022-09-28T16:50:52.065Z,97936.25
2022-09-28T16:52:42.612Z,97944.31
2022-09-28T16:54:40.950Z,97943.47
2022-09-28T16:56:13.140Z,97938.53
2022-09-28T16:57:46.091Z,97945.97
2022-09-28T16:59:18.009Z,97941.66
2022-09-28T17:00:50.082Z,97951.84
2022-09-28T17:02:45.710Z,97956.53
2022-09-28T17:04:18.878Z,97952.31
2022-09-28T17:05:51.361Z,97953.59
2022-09-28T17:07:23.227Z,97956.19
2022-09-28T17:08:56.750Z,97949.94
2022-09-28T17:11:02.472Z,97950.50
2022-09-28T17:12:35.691Z,97953.75
2022-09-28T17:14:08.870Z,97952.94
2022-09-28T17:15:41.296Z,97954.84
2022-09-28T17:17:16.971Z,97950.66
2022-09-28T17:18:49.282Z,97954.63
2022-09-28T17:20:26.883Z,97954.50
2022-09-28T17:21:59.060Z,97953.00
2022-09-28T17:23:30.996Z,97950.84
2022-09-28T17:25:02.920Z,97952.78
2022-09-28T17:26:36.061Z,97950.63
2022-09-28T17:28:13.672Z,97949.13
2022-09-28T17:29:45.497Z,97938.78
2022-09-28T17:31:17.672Z,97944.06
2022-09-28T17:32:49.667Z,97940.59
2022-09-28T17:34:21.739Z,97944.56
2022-09-28T17:35:57.392Z,97950.66
2022-09-28T17:37:29.486Z,97948.47
2022-09-28T17:39:01.417Z,97946.28
2022-09-28T17:40:33.564Z,97946.81
2022-09-28T17:42:05.535Z,97952.84
2022-09-28T17:43:37.485Z,97950.00
2022-09-28T17:45:09.402Z,97951.16
2022-09-28T17:46:46.008Z,97948.19
2022-09-28T17:48:19.005Z,97951.38
2022-09-28T17:49:51.490Z,97945.06
2022-09-28T17:51:23.820Z,97946.16
2022-09-28T17:52:57.790Z,97948.03
2022-09-28T17:54:29.644Z,97951.94
2022-09-28T17:56:01.646Z,97952.44
2022-09-28T17:57:33.674Z,97942.78
2022-09-28T17:59:07.014Z,97948.78
2022-09-28T18:00:38.890Z,97952.03
2022-09-28T18:02:11.257Z,97955.34
2022-09-28T18:03:43.283Z,97951.09
2022-09-28T18:05:15.289Z,97947.69
2022-09-28T18:06:47.134Z,97955.78
2022-09-28T18:08:20.364Z,97956.41
2022-09-28T18:09:56.871Z,97955.69
2022-09-28T18:11:29.321Z,97968.63
2022-09-28T18:13:01.286Z,97973.28
2022-09-28T18:14:33.315Z,97964.41
2022-09-28T18:16:05.938Z,97962.91
2022-09-28T18:17:38.534Z,97964.13
2022-09-28T18:19:10.515Z,97957.31
2022-09-28T18:20:42.521Z,97962.06
2022-09-28T18:22:14.485Z,97961.34
2022-09-28T18:23:46.425Z,97964.69
2022-09-28T18:25:18.391Z,97962.56
2022-09-28T18:26:50.330Z,97967.31
2022-09-28T18:28:23.111Z,97961.81
2022-09-28T18:29:55.060Z,97969.88
2022-09-28T18:31:27.933Z,97971.91
2022-09-28T18:33:00.064Z,97969.09
2022-09-28T18:34:34.780Z,97974.47
2022-09-28T18:36:07.078Z,97975.09
2022-09-28T18:37:40.010Z,97976.31
2022-09-28T18:39:12.037Z,97974.91
2022-09-28T18:40:44.160Z,97971.41
2022-09-28T18:42:16.235Z,97978.09
2022-09-28T18:43:51.986Z,97971.84
2022-09-28T18:45:23.974Z,97987.50
2022-09-28T18:46:55.934Z,97981.94
2022-09-28T18:48:29.514Z,97984.66
2022-09-28T18:50:01.521Z,97982.56
2022-09-28T18:51:35.409Z,97983.22
2022-09-28T18:53:13.426Z,97979.69
2022-09-28T18:54:46.765Z,97982.31
2022-09-28T18:56:19.246Z,97973.97
2022-09-28T18:57:51.479Z,97977.31
2022-09-28T18:59:23.660Z,97974.41
2022-09-28T19:01:13.552Z,97980.38
2022-09-28T19:02:47.958Z,97982.75
2022-09-28T19:04:23.610Z,97984.56
2022-09-28T19:05:55.712Z,97980.91
2022-09-28T19:07:27.777Z,97986.16
2022-09-28T19:09:00.121Z,97981.22
2022-09-28T19:10:32.123Z,97987.19
2022-09-28T19:12:04.437Z,97986.41
2022-09-28T19:13:36.628Z,97988.34
2022-09-28T19:15:08.755Z,97989.66
2022-09-28T19:16:40.710Z,97990.38
2022-09-28T19:18:12.613Z,97991.06
2022-09-28T19:19:45.029Z,97996.59
2022-09-28T19:21:17.218Z,97991.25